Baldwin Harbor, New York
Current Conditions -  °F | °C
As of 3:51 AM on Friday 24 Oct 2014 (Local Time) from KJFK Reporting Station
Broken Clouds Broken Clouds  
Wind Chill: 11°   Ceiling: 9000
Heat Index: 11°   Visibility: 10mi
Dew Point:   Wind: 15mph
Humidity: 71%   Direction: 320°NW
Pressure: 29.78"   Gusts: NA
Location:  40.6539°N, 73.609°W
Report Text: KJFK 240751Z 32013KT 10SM SCT036 BKN090 BKN210 11/06 A2978 RMK AO2 SLP083 T01110061 $
Loading
Personal Weather Stations






























Interactive Weather Map
Tropical Storm Tracking
New forecast layout! Learn more

10-Day Weather Forecast

Advertisements
Track Severe Weather on mobile